Halltown, West Virginia
Current Conditions -  °F | °C
As of 7:53 AM on Saturday 01 Nov 2014 (Local Time) from KMRB Reporting Station
Light Rain Light Rain  
Wind Chill: 42°   Ceiling: 3400
Heat Index: 46°   Visibility: 10mi
Dew Point: 36°   Wind: 8mph
Humidity: 68%   Direction: 340°NNW
Pressure: 29.85"   Gusts: NA
Location:  39.31°N, 77.8°W
Report Text: KMRB 011153Z 34007KT 10SM -RA OVC034 08/02 A2985 RMK AO2 RAB08 SLP110 P0000 60000 T00780022 10089 20078 51015
Loading
Personal Weather Stations






























Interactive Weather Map
Tropical Storm Tracking
New forecast layout! Learn more

10-Day Weather Forecast

Advertisements
Track Severe Weather on mobile